<?xml version="1.0" encoding="UTF-8" standalone="no" ?>
<gpx xmlns="http://www.topografix.com/GPX/1/1" xmlns:xsi="http://www.w3.org/2001/XMLSchema-instance" xsi:schemaLocation="http://www.topografix.com/GPX/1/1 http://www.topografix.com/GPX/1/1/gpx.xsd" version="1.1" creator="VisuGPX - https://www.visugpx.com">
  <metadata>
    <name>spv_vtt</name>
    <desc><![CDATA[test tracé VTT à Corne SPV]]></desc>
  </metadata>
  <trk>
    <name><![CDATA[spv_vtt_1]]></name>
    <trkseg>
      <trkpt lat="45.05245" lon="5.62467">
        <ele>602</ele>
        <time>2015-04-15T15:39:37.000Z</time>
      </trkpt>
      <trkpt lat="45.05248" lon="5.62464">
        <ele>603</ele>
        <time>2015-04-15T15:39:38.000Z</time>
      </trkpt>
      <trkpt lat="45.05262" lon="5.62447">
        <ele>600</ele>
        <time>2015-04-15T15:39:44.000Z</time>
      </trkpt>
      <trkpt lat="45.05279" lon="5.62441">
        <ele>599</ele>
        <time>2015-04-15T15:39:48.000Z</time>
      </trkpt>
      <trkpt lat="45.053" lon="5.62432">
        <ele>596</ele>
        <time>2015-04-15T15:39:52.000Z</time>
      </trkpt>
      <trkpt lat="45.0531" lon="5.62428">
        <ele>595</ele>
        <time>2015-04-15T15:39:54.000Z</time>
      </trkpt>
      <trkpt lat="45.05336" lon="5.62421">
        <ele>590</ele>
        <time>2015-04-15T15:39:59.000Z</time>
      </trkpt>
      <trkpt lat="45.05352" lon="5.6242">
        <ele>587</ele>
        <time>2015-04-15T15:40:02.000Z</time>
      </trkpt>
      <trkpt lat="45.05372" lon="5.6242">
        <ele>584</ele>
        <time>2015-04-15T15:40:06.000Z</time>
      </trkpt>
      <trkpt lat="45.05387" lon="5.62421">
        <ele>582</ele>
        <time>2015-04-15T15:40:09.000Z</time>
      </trkpt>
      <trkpt lat="45.05406" lon="5.62415">
        <ele>583</ele>
        <time>2015-04-15T15:40:13.000Z</time>
      </trkpt>
      <trkpt lat="45.05428" lon="5.62402">
        <ele>580</ele>
        <time>2015-04-15T15:40:18.000Z</time>
      </trkpt>
      <trkpt lat="45.05432" lon="5.624">
        <ele>580</ele>
        <time>2015-04-15T15:40:19.000Z</time>
      </trkpt>
      <trkpt lat="45.05454" lon="5.62379">
        <ele>581</ele>
        <time>2015-04-15T15:40:25.000Z</time>
      </trkpt>
      <trkpt lat="45.05456" lon="5.62376">
        <ele>581</ele>
        <time>2015-04-15T15:40:26.000Z</time>
      </trkpt>
      <trkpt lat="45.05457" lon="5.62365">
        <ele>582</ele>
        <time>2015-04-15T15:40:29.000Z</time>
      </trkpt>
      <trkpt lat="45.05453" lon="5.62361">
        <ele>582</ele>
        <time>2015-04-15T15:40:31.000Z</time>
      </trkpt>
      <trkpt lat="45.05436" lon="5.62352">
        <ele>584</ele>
        <time>2015-04-15T15:40:40.000Z</time>
      </trkpt>
      <trkpt lat="45.05422" lon="5.62346">
        <ele>587</ele>
        <time>2015-04-15T15:40:48.000Z</time>
      </trkpt>
      <trkpt lat="45.0541" lon="5.6234">
        <ele>591</ele>
        <time>2015-04-15T15:40:55.000Z</time>
      </trkpt>
      <trkpt lat="45.05402" lon="5.62334">
        <ele>592</ele>
        <time>2015-04-15T15:41:00.000Z</time>
      </trkpt>
      <trkpt lat="45.05391" lon="5.62323">
        <ele>599</ele>
        <time>2015-04-15T15:41:08.000Z</time>
      </trkpt>
      <trkpt lat="45.05383" lon="5.62312">
        <ele>601</ele>
        <time>2015-04-15T15:41:15.000Z</time>
      </trkpt>
      <trkpt lat="45.05375" lon="5.62303">
        <ele>602</ele>
        <time>2015-04-15T15:41:21.000Z</time>
      </trkpt>
      <trkpt lat="45.05373" lon="5.62299">
        <ele>603</ele>
        <time>2015-04-15T15:41:24.000Z</time>
      </trkpt>
      <trkpt lat="45.05361" lon="5.62288">
        <ele>604</ele>
        <time>2015-04-15T15:41:32.000Z</time>
      </trkpt>
      <trkpt lat="45.05355" lon="5.62283">
        <ele>604</ele>
        <time>2015-04-15T15:41:37.000Z</time>
      </trkpt>
      <trkpt lat="45.05345" lon="5.62277">
        <ele>605</ele>
        <time>2015-04-15T15:41:44.000Z</time>
      </trkpt>
      <trkpt lat="45.05338" lon="5.6227">
        <ele>606</ele>
        <time>2015-04-15T15:41:49.000Z</time>
      </trkpt>
      <trkpt lat="45.05327" lon="5.62257">
        <ele>614</ele>
        <time>2015-04-15T15:41:57.000Z</time>
      </trkpt>
      <trkpt lat="45.05321" lon="5.62246">
        <ele>617</ele>
        <time>2015-04-15T15:42:02.000Z</time>
      </trkpt>
      <trkpt lat="45.05311" lon="5.62233">
        <ele>622</ele>
        <time>2015-04-15T15:42:11.000Z</time>
      </trkpt>
      <trkpt lat="45.05303" lon="5.62226">
        <ele>625</ele>
        <time>2015-04-15T15:42:17.000Z</time>
      </trkpt>
      <trkpt lat="45.05297" lon="5.62215">
        <ele>626</ele>
        <time>2015-04-15T15:42:23.000Z</time>
      </trkpt>
      <trkpt lat="45.05291" lon="5.62205">
        <ele>627</ele>
        <time>2015-04-15T15:42:29.000Z</time>
      </trkpt>
      <trkpt lat="45.05287" lon="5.62196">
        <ele>628</ele>
        <time>2015-04-15T15:42:32.000Z</time>
      </trkpt>
      <trkpt lat="45.05285" lon="5.62192">
        <ele>628</ele>
        <time>2015-04-15T15:42:34.000Z</time>
      </trkpt>
      <trkpt lat="45.0528" lon="5.62183">
        <ele>629</ele>
        <time>2015-04-15T15:42:39.000Z</time>
      </trkpt>
      <trkpt lat="45.05274" lon="5.62172">
        <ele>630</ele>
        <time>2015-04-15T15:42:45.000Z</time>
      </trkpt>
      <trkpt lat="45.05273" lon="5.6217">
        <ele>630</ele>
        <time>2015-04-15T15:42:46.000Z</time>
      </trkpt>
      <trkpt lat="45.05267" lon="5.62156">
        <ele>633</ele>
        <time>2015-04-15T15:42:53.000Z</time>
      </trkpt>
      <trkpt lat="45.0526" lon="5.62146">
        <ele>633</ele>
        <time>2015-04-15T15:42:59.000Z</time>
      </trkpt>
      <trkpt lat="45.05255" lon="5.62133">
        <ele>633</ele>
        <time>2015-04-15T15:43:06.000Z</time>
      </trkpt>
      <trkpt lat="45.05252" lon="5.62118">
        <ele>633</ele>
        <time>2015-04-15T15:43:13.000Z</time>
      </trkpt>
      <trkpt lat="45.05252" lon="5.62116">
        <ele>633</ele>
        <time>2015-04-15T15:43:14.000Z</time>
      </trkpt>
      <trkpt lat="45.05254" lon="5.62104">
        <ele>634</ele>
        <time>2015-04-15T15:43:20.000Z</time>
      </trkpt>
      <trkpt lat="45.05255" lon="5.621">
        <ele>634</ele>
        <time>2015-04-15T15:43:22.000Z</time>
      </trkpt>
      <trkpt lat="45.05251" lon="5.62088">
        <ele>635</ele>
        <time>2015-04-15T15:43:28.000Z</time>
      </trkpt>
      <trkpt lat="45.05247" lon="5.62081">
        <ele>639</ele>
        <time>2015-04-15T15:43:32.000Z</time>
      </trkpt>
      <trkpt lat="45.05245" lon="5.62073">
        <ele>643</ele>
        <time>2015-04-15T15:43:36.000Z</time>
      </trkpt>
      <trkpt lat="45.05244" lon="5.62062">
        <ele>647</ele>
        <time>2015-04-15T15:43:41.000Z</time>
      </trkpt>
      <trkpt lat="45.05243" lon="5.62055">
        <ele>648</ele>
        <time>2015-04-15T15:43:44.000Z</time>
      </trkpt>
      <trkpt lat="45.05243" lon="5.62052">
        <ele>649</ele>
        <time>2015-04-15T15:43:46.000Z</time>
      </trkpt>
      <trkpt lat="45.0524" lon="5.62042">
        <ele>650</ele>
        <time>2015-04-15T15:43:51.000Z</time>
      </trkpt>
      <trkpt lat="45.05239" lon="5.62039">
        <ele>650</ele>
        <time>2015-04-15T15:43:53.000Z</time>
      </trkpt>
      <trkpt lat="45.05235" lon="5.62026">
        <ele>650</ele>
        <time>2015-04-15T15:44:00.000Z</time>
      </trkpt>
      <trkpt lat="45.05234" lon="5.62025">
        <ele>650</ele>
        <time>2015-04-15T15:44:01.000Z</time>
      </trkpt>
      <trkpt lat="45.05229" lon="5.62018">
        <ele>651</ele>
        <time>2015-04-15T15:44:06.000Z</time>
      </trkpt>
      <trkpt lat="45.05228" lon="5.62014">
        <ele>651</ele>
        <time>2015-04-15T15:44:08.000Z</time>
      </trkpt>
      <trkpt lat="45.05228" lon="5.6201">
        <ele>651</ele>
        <time>2015-04-15T15:44:10.000Z</time>
      </trkpt>
      <trkpt lat="45.05229" lon="5.62003">
        <ele>650</ele>
        <time>2015-04-15T15:44:14.000Z</time>
      </trkpt>
      <trkpt lat="45.05234" lon="5.61995">
        <ele>651</ele>
        <time>2015-04-15T15:44:19.000Z</time>
      </trkpt>
      <trkpt lat="45.05236" lon="5.61992">
        <ele>650</ele>
        <time>2015-04-15T15:44:21.000Z</time>
      </trkpt>
      <trkpt lat="45.05242" lon="5.61988">
        <ele>649</ele>
        <time>2015-04-15T15:44:25.000Z</time>
      </trkpt>
      <trkpt lat="45.05249" lon="5.61976">
        <ele>652</ele>
        <time>2015-04-15T15:44:32.000Z</time>
      </trkpt>
      <trkpt lat="45.0525" lon="5.61967">
        <ele>653</ele>
        <time>2015-04-15T15:44:37.000Z</time>
      </trkpt>
      <trkpt lat="45.05249" lon="5.6196">
        <ele>654</ele>
        <time>2015-04-15T15:44:41.000Z</time>
      </trkpt>
      <trkpt lat="45.05246" lon="5.61951">
        <ele>655</ele>
        <time>2015-04-15T15:44:47.000Z</time>
      </trkpt>
      <trkpt lat="45.05246" lon="5.61949">
        <ele>655</ele>
        <time>2015-04-15T15:44:48.000Z</time>
      </trkpt>
      <trkpt lat="45.05245" lon="5.61947">
        <ele>655</ele>
        <time>2015-04-15T15:44:49.000Z</time>
      </trkpt>
      <trkpt lat="45.05241" lon="5.61938">
        <ele>655</ele>
        <time>2015-04-15T15:44:54.000Z</time>
      </trkpt>
      <trkpt lat="45.05238" lon="5.61931">
        <ele>655</ele>
        <time>2015-04-15T15:44:58.000Z</time>
      </trkpt>
      <trkpt lat="45.05235" lon="5.61925">
        <ele>655</ele>
        <time>2015-04-15T15:45:01.000Z</time>
      </trkpt>
      <trkpt lat="45.05228" lon="5.61913">
        <ele>661</ele>
        <time>2015-04-15T15:45:09.000Z</time>
      </trkpt>
      <trkpt lat="45.05221" lon="5.61907">
        <ele>664</ele>
        <time>2015-04-15T15:45:15.000Z</time>
      </trkpt>
      <trkpt lat="45.05214" lon="5.61898">
        <ele>666</ele>
        <time>2015-04-15T15:45:21.000Z</time>
      </trkpt>
      <trkpt lat="45.05207" lon="5.61892">
        <ele>668</ele>
        <time>2015-04-15T15:45:27.000Z</time>
      </trkpt>
      <trkpt lat="45.05197" lon="5.61883">
        <ele>669</ele>
        <time>2015-04-15T15:45:34.000Z</time>
      </trkpt>
      <trkpt lat="45.05188" lon="5.61877">
        <ele>671</ele>
        <time>2015-04-15T15:45:41.000Z</time>
      </trkpt>
      <trkpt lat="45.05186" lon="5.61876">
        <ele>671</ele>
        <time>2015-04-15T15:45:42.000Z</time>
      </trkpt>
      <trkpt lat="45.05171" lon="5.61876">
        <ele>672</ele>
        <time>2015-04-15T15:45:49.000Z</time>
      </trkpt>
      <trkpt lat="45.0516" lon="5.61877">
        <ele>690</ele>
        <time>2015-04-15T15:45:54.000Z</time>
      </trkpt>
      <trkpt lat="45.05159" lon="5.61879">
        <ele>690</ele>
        <time>2015-04-15T15:45:55.000Z</time>
      </trkpt>
      <trkpt lat="45.05155" lon="5.61886">
        <ele>690</ele>
        <time>2015-04-15T15:46:00.000Z</time>
      </trkpt>
      <trkpt lat="45.05155" lon="5.6189">
        <ele>689</ele>
        <time>2015-04-15T15:46:01.000Z</time>
      </trkpt>
      <trkpt lat="45.05155" lon="5.61896">
        <ele>688</ele>
        <time>2015-04-15T15:46:03.000Z</time>
      </trkpt>
      <trkpt lat="45.05161" lon="5.61913">
        <ele>679</ele>
        <time>2015-04-15T15:46:08.000Z</time>
      </trkpt>
      <trkpt lat="45.05166" lon="5.61927">
        <ele>679</ele>
        <time>2015-04-15T15:46:15.000Z</time>
      </trkpt>
      <trkpt lat="45.05171" lon="5.61939">
        <ele>667</ele>
        <time>2015-04-15T15:46:20.000Z</time>
      </trkpt>
      <trkpt lat="45.05172" lon="5.61941">
        <ele>666</ele>
        <time>2015-04-15T15:46:21.000Z</time>
      </trkpt>
      <trkpt lat="45.05172" lon="5.61954">
        <ele>665</ele>
        <time>2015-04-15T15:46:26.000Z</time>
      </trkpt>
      <trkpt lat="45.0517" lon="5.61958">
        <ele>665</ele>
        <time>2015-04-15T15:46:28.000Z</time>
      </trkpt>
      <trkpt lat="45.0517" lon="5.61962">
        <ele>665</ele>
        <time>2015-04-15T15:46:30.000Z</time>
      </trkpt>
      <trkpt lat="45.05167" lon="5.61971">
        <ele>666</ele>
        <time>2015-04-15T15:46:34.000Z</time>
      </trkpt>
      <trkpt lat="45.05163" lon="5.61979">
        <ele>681</ele>
        <time>2015-04-15T15:46:38.000Z</time>
      </trkpt>
      <trkpt lat="45.05158" lon="5.61983">
        <ele>681</ele>
        <time>2015-04-15T15:46:41.000Z</time>
      </trkpt>
      <trkpt lat="45.05155" lon="5.61993">
        <ele>680</ele>
        <time>2015-04-15T15:46:46.000Z</time>
      </trkpt>
      <trkpt lat="45.0516" lon="5.62005">
        <ele>675</ele>
        <time>2015-04-15T15:46:51.000Z</time>
      </trkpt>
      <trkpt lat="45.0516" lon="5.62007">
        <ele>676</ele>
        <time>2015-04-15T15:46:52.000Z</time>
      </trkpt>
      <trkpt lat="45.05163" lon="5.62018">
        <ele>676</ele>
        <time>2015-04-15T15:46:56.000Z</time>
      </trkpt>
      <trkpt lat="45.05162" lon="5.62035">
        <ele>676</ele>
        <time>2015-04-15T15:47:02.000Z</time>
      </trkpt>
      <trkpt lat="45.05162" lon="5.62043">
        <ele>676</ele>
        <time>2015-04-15T15:47:06.000Z</time>
      </trkpt>
      <trkpt lat="45.05158" lon="5.6205">
        <ele>676</ele>
        <time>2015-04-15T15:47:10.000Z</time>
      </trkpt>
      <trkpt lat="45.05155" lon="5.62052">
        <ele>676</ele>
        <time>2015-04-15T15:47:12.000Z</time>
      </trkpt>
      <trkpt lat="45.05148" lon="5.62053">
        <ele>676</ele>
        <time>2015-04-15T15:47:17.000Z</time>
      </trkpt>
      <trkpt lat="45.05138" lon="5.62051">
        <ele>677</ele>
        <time>2015-04-15T15:47:23.000Z</time>
      </trkpt>
      <trkpt lat="45.05131" lon="5.62048">
        <ele>677</ele>
        <time>2015-04-15T15:47:28.000Z</time>
      </trkpt>
      <trkpt lat="45.05124" lon="5.62043">
        <ele>678</ele>
        <time>2015-04-15T15:47:32.000Z</time>
      </trkpt>
      <trkpt lat="45.05115" lon="5.62041">
        <ele>679</ele>
        <time>2015-04-15T15:47:39.000Z</time>
      </trkpt>
      <trkpt lat="45.05103" lon="5.62045">
        <ele>679</ele>
        <time>2015-04-15T15:47:45.000Z</time>
      </trkpt>
      <trkpt lat="45.05101" lon="5.62045">
        <ele>680</ele>
        <time>2015-04-15T15:47:46.000Z</time>
      </trkpt>
      <trkpt lat="45.0509" lon="5.62053">
        <ele>679</ele>
        <time>2015-04-15T15:47:51.000Z</time>
      </trkpt>
      <trkpt lat="45.05072" lon="5.62055">
        <ele>682</ele>
        <time>2015-04-15T15:47:55.000Z</time>
      </trkpt>
      <trkpt lat="45.05059" lon="5.62064">
        <ele>682</ele>
        <time>2015-04-15T15:47:59.000Z</time>
      </trkpt>
      <trkpt lat="45.05049" lon="5.62069">
        <ele>682</ele>
        <time>2015-04-15T15:48:02.000Z</time>
      </trkpt>
      <trkpt lat="45.05038" lon="5.62071">
        <ele>681</ele>
        <time>2015-04-15T15:48:04.000Z</time>
      </trkpt>
      <trkpt lat="45.05033" lon="5.62072">
        <ele>681</ele>
        <time>2015-04-15T15:48:05.000Z</time>
      </trkpt>
      <trkpt lat="45.05022" lon="5.62073">
        <ele>680</ele>
        <time>2015-04-15T15:48:08.000Z</time>
      </trkpt>
      <trkpt lat="45.05002" lon="5.62065">
        <ele>680</ele>
        <time>2015-04-15T15:48:15.000Z</time>
      </trkpt>
      <trkpt lat="45.04987" lon="5.62065">
        <ele>684</ele>
        <time>2015-04-15T15:48:22.000Z</time>
      </trkpt>
      <trkpt lat="45.04977" lon="5.62072">
        <ele>685</ele>
        <time>2015-04-15T15:48:27.000Z</time>
      </trkpt>
      <trkpt lat="45.04957" lon="5.6207">
        <ele>689</ele>
        <time>2015-04-15T15:48:35.000Z</time>
      </trkpt>
      <trkpt lat="45.04954" lon="5.62071">
        <ele>689</ele>
        <time>2015-04-15T15:48:36.000Z</time>
      </trkpt>
      <trkpt lat="45.04938" lon="5.62069">
        <ele>691</ele>
        <time>2015-04-15T15:48:40.000Z</time>
      </trkpt>
      <trkpt lat="45.04935" lon="5.62066">
        <ele>691</ele>
        <time>2015-04-15T15:48:43.000Z</time>
      </trkpt>
      <trkpt lat="45.04927" lon="5.62064">
        <ele>692</ele>
        <time>2015-04-15T15:48:47.000Z</time>
      </trkpt>
      <trkpt lat="45.04927" lon="5.62064">
        <ele>692</ele>
        <time>2015-04-15T15:48:48.000Z</time>
      </trkpt>
      <trkpt lat="45.04924" lon="5.62066">
        <ele>692</ele>
        <time>2015-04-15T15:48:53.000Z</time>
      </trkpt>
      <trkpt lat="45.04925" lon="5.62075">
        <ele>692</ele>
        <time>2015-04-15T15:48:57.000Z</time>
      </trkpt>
      <trkpt lat="45.04926" lon="5.62082">
        <ele>692</ele>
        <time>2015-04-15T15:48:59.000Z</time>
      </trkpt>
      <trkpt lat="45.04926" lon="5.62095">
        <ele>687</ele>
        <time>2015-04-15T15:49:03.000Z</time>
      </trkpt>
      <trkpt lat="45.04926" lon="5.62107">
        <ele>684</ele>
        <time>2015-04-15T15:49:07.000Z</time>
      </trkpt>
      <trkpt lat="45.0492" lon="5.62113">
        <ele>684</ele>
        <time>2015-04-15T15:49:11.000Z</time>
      </trkpt>
      <trkpt lat="45.04919" lon="5.62123">
        <ele>683</ele>
        <time>2015-04-15T15:49:14.000Z</time>
      </trkpt>
      <trkpt lat="45.04919" lon="5.62126">
        <ele>683</ele>
        <time>2015-04-15T15:49:15.000Z</time>
      </trkpt>
      <trkpt lat="45.04915" lon="5.62154">
        <ele>693</ele>
        <time>2015-04-15T15:49:21.000Z</time>
      </trkpt>
      <trkpt lat="45.04917" lon="5.62159">
        <ele>684</ele>
        <time>2015-04-15T15:49:22.000Z</time>
      </trkpt>
      <trkpt lat="45.04919" lon="5.62179">
        <ele>682</ele>
        <time>2015-04-15T15:49:26.000Z</time>
      </trkpt>
      <trkpt lat="45.04923" lon="5.62196">
        <ele>680</ele>
        <time>2015-04-15T15:49:30.000Z</time>
      </trkpt>
      <trkpt lat="45.04927" lon="5.62214">
        <ele>679</ele>
        <time>2015-04-15T15:49:35.000Z</time>
      </trkpt>
      <trkpt lat="45.04927" lon="5.62217">
        <ele>679</ele>
        <time>2015-04-15T15:49:36.000Z</time>
      </trkpt>
      <trkpt lat="45.04926" lon="5.62224">
        <ele>680</ele>
        <time>2015-04-15T15:49:39.000Z</time>
      </trkpt>
      <trkpt lat="45.04927" lon="5.62232">
        <ele>681</ele>
        <time>2015-04-15T15:49:41.000Z</time>
      </trkpt>
      <trkpt lat="45.04923" lon="5.62244">
        <ele>684</ele>
        <time>2015-04-15T15:49:46.000Z</time>
      </trkpt>
      <trkpt lat="45.0492" lon="5.62254">
        <ele>685</ele>
        <time>2015-04-15T15:49:50.000Z</time>
      </trkpt>
      <trkpt lat="45.04919" lon="5.62258">
        <ele>683</ele>
        <time>2015-04-15T15:49:51.000Z</time>
      </trkpt>
      <trkpt lat="45.04917" lon="5.62265">
        <ele>689</ele>
        <time>2015-04-15T15:49:53.000Z</time>
      </trkpt>
      <trkpt lat="45.04912" lon="5.62275">
        <ele>689</ele>
        <time>2015-04-15T15:49:57.000Z</time>
      </trkpt>
      <trkpt lat="45.04908" lon="5.62281">
        <ele>689</ele>
        <time>2015-04-15T15:50:00.000Z</time>
      </trkpt>
      <trkpt lat="45.04904" lon="5.62288">
        <ele>688</ele>
        <time>2015-04-15T15:50:02.000Z</time>
      </trkpt>
      <trkpt lat="45.04898" lon="5.62293">
        <ele>688</ele>
        <time>2015-04-15T15:50:04.000Z</time>
      </trkpt>
      <trkpt lat="45.04889" lon="5.62304">
        <ele>688</ele>
        <time>2015-04-15T15:50:07.000Z</time>
      </trkpt>
      <trkpt lat="45.04884" lon="5.62311">
        <ele>688</ele>
        <time>2015-04-15T15:50:09.000Z</time>
      </trkpt>
      <trkpt lat="45.04871" lon="5.62327">
        <ele>689</ele>
        <time>2015-04-15T15:50:12.000Z</time>
      </trkpt>
      <trkpt lat="45.04852" lon="5.62341">
        <ele>683</ele>
        <time>2015-04-15T15:50:17.000Z</time>
      </trkpt>
      <trkpt lat="45.04848" lon="5.62347">
        <ele>683</ele>
        <time>2015-04-15T15:50:19.000Z</time>
      </trkpt>
      <trkpt lat="45.04844" lon="5.62353">
        <ele>682</ele>
        <time>2015-04-15T15:50:21.000Z</time>
      </trkpt>
      <trkpt lat="45.04835" lon="5.62369">
        <ele>680</ele>
        <time>2015-04-15T15:50:25.000Z</time>
      </trkpt>
      <trkpt lat="45.04829" lon="5.62375">
        <ele>686</ele>
        <time>2015-04-15T15:50:27.000Z</time>
      </trkpt>
      <trkpt lat="45.04824" lon="5.6238">
        <ele>685</ele>
        <time>2015-04-15T15:50:30.000Z</time>
      </trkpt>
      <trkpt lat="45.04824" lon="5.62384">
        <ele>684</ele>
        <time>2015-04-15T15:50:33.000Z</time>
      </trkpt>
      <trkpt lat="45.04819" lon="5.62391">
        <ele>683</ele>
        <time>2015-04-15T15:50:38.000Z</time>
      </trkpt>
      <trkpt lat="45.04814" lon="5.62396">
        <ele>683</ele>
        <time>2015-04-15T15:50:42.000Z</time>
      </trkpt>
      <trkpt lat="45.04814" lon="5.62396">
        <ele>683</ele>
        <time>2015-04-15T15:50:43.000Z</time>
      </trkpt>
      <trkpt lat="45.04813" lon="5.62396">
        <ele>683</ele>
        <time>2015-04-15T15:50:44.000Z</time>
      </trkpt>
      <trkpt lat="45.04807" lon="5.624">
        <ele>683</ele>
        <time>2015-04-15T15:50:48.000Z</time>
      </trkpt>
      <trkpt lat="45.04798" lon="5.62405">
        <ele>683</ele>
        <time>2015-04-15T15:50:51.000Z</time>
      </trkpt>
      <trkpt lat="45.0478" lon="5.62404">
        <ele>683</ele>
        <time>2015-04-15T15:50:54.000Z</time>
      </trkpt>
      <trkpt lat="45.04772" lon="5.62406">
        <ele>683</ele>
        <time>2015-04-15T15:50:55.000Z</time>
      </trkpt>
      <trkpt lat="45.04758" lon="5.6241">
        <ele>681</ele>
        <time>2015-04-15T15:50:58.000Z</time>
      </trkpt>
      <trkpt lat="45.04744" lon="5.62412">
        <ele>682</ele>
        <time>2015-04-15T15:51:01.000Z</time>
      </trkpt>
      <trkpt lat="45.04741" lon="5.62414">
        <ele>683</ele>
        <time>2015-04-15T15:51:02.000Z</time>
      </trkpt>
      <trkpt lat="45.04733" lon="5.62415">
        <ele>686</ele>
        <time>2015-04-15T15:51:03.000Z</time>
      </trkpt>
      <trkpt lat="45.0471" lon="5.62416">
        <ele>692</ele>
        <time>2015-04-15T15:51:07.000Z</time>
      </trkpt>
      <trkpt lat="45.04705" lon="5.6242">
        <ele>688</ele>
        <time>2015-04-15T15:51:08.000Z</time>
      </trkpt>
      <trkpt lat="45.047" lon="5.62426">
        <ele>689</ele>
        <time>2015-04-15T15:51:09.000Z</time>
      </trkpt>
      <trkpt lat="45.04699" lon="5.62431">
        <ele>689</ele>
        <time>2015-04-15T15:51:11.000Z</time>
      </trkpt>
      <trkpt lat="45.04717" lon="5.62449">
        <ele>687</ele>
        <time>2015-04-15T15:51:15.000Z</time>
      </trkpt>
      <trkpt lat="45.04726" lon="5.62452">
        <ele>686</ele>
        <time>2015-04-15T15:51:17.000Z</time>
      </trkpt>
      <trkpt lat="45.0474" lon="5.6245">
        <ele>684</ele>
        <time>2015-04-15T15:51:19.000Z</time>
      </trkpt>
      <trkpt lat="45.04763" lon="5.6244">
        <ele>673</ele>
        <time>2015-04-15T15:51:22.000Z</time>
      </trkpt>
      <trkpt lat="45.0477" lon="5.62438">
        <ele>673</ele>
        <time>2015-04-15T15:51:23.000Z</time>
      </trkpt>
      <trkpt lat="45.04791" lon="5.62435">
        <ele>672</ele>
        <time>2015-04-15T15:51:26.000Z</time>
      </trkpt>
      <trkpt lat="45.04802" lon="5.62438">
        <ele>672</ele>
        <time>2015-04-15T15:51:29.000Z</time>
      </trkpt>
      <trkpt lat="45.04821" lon="5.62442">
        <ele>671</ele>
        <time>2015-04-15T15:51:34.000Z</time>
      </trkpt>
      <trkpt lat="45.04838" lon="5.62444">
        <ele>667</ele>
        <time>2015-04-15T15:51:38.000Z</time>
      </trkpt>
      <trkpt lat="45.04842" lon="5.62446">
        <ele>666</ele>
        <time>2015-04-15T15:51:39.000Z</time>
      </trkpt>
      <trkpt lat="45.04855" lon="5.6245">
        <ele>665</ele>
        <time>2015-04-15T15:51:42.000Z</time>
      </trkpt>
      <trkpt lat="45.04877" lon="5.62458">
        <ele>663</ele>
        <time>2015-04-15T15:51:48.000Z</time>
      </trkpt>
      <trkpt lat="45.04881" lon="5.62461">
        <ele>663</ele>
        <time>2015-04-15T15:51:49.000Z</time>
      </trkpt>
      <trkpt lat="45.04885" lon="5.62462">
        <ele>662</ele>
        <time>2015-04-15T15:51:50.000Z</time>
      </trkpt>
      <trkpt lat="45.04903" lon="5.62468">
        <ele>661</ele>
        <time>2015-04-15T15:51:55.000Z</time>
      </trkpt>
      <trkpt lat="45.0492" lon="5.62469">
        <ele>658</ele>
        <time>2015-04-15T15:52:00.000Z</time>
      </trkpt>
      <trkpt lat="45.04934" lon="5.62467">
        <ele>658</ele>
        <time>2015-04-15T15:52:04.000Z</time>
      </trkpt>
      <trkpt lat="45.04951" lon="5.62468">
        <ele>658</ele>
        <time>2015-04-15T15:52:08.000Z</time>
      </trkpt>
      <trkpt lat="45.04966" lon="5.62465">
        <ele>658</ele>
        <time>2015-04-15T15:52:11.000Z</time>
      </trkpt>
      <trkpt lat="45.04981" lon="5.62445">
        <ele>659</ele>
        <time>2015-04-15T15:52:16.000Z</time>
      </trkpt>
      <trkpt lat="45.04987" lon="5.62437">
        <ele>659</ele>
        <time>2015-04-15T15:52:18.000Z</time>
      </trkpt>
      <trkpt lat="45.04994" lon="5.62427">
        <ele>660</ele>
        <time>2015-04-15T15:52:20.000Z</time>
      </trkpt>
      <trkpt lat="45.05004" lon="5.62419">
        <ele>658</ele>
        <time>2015-04-15T15:52:23.000Z</time>
      </trkpt>
      <trkpt lat="45.05018" lon="5.62397">
        <ele>653</ele>
        <time>2015-04-15T15:52:28.000Z</time>
      </trkpt>
      <trkpt lat="45.05021" lon="5.62392">
        <ele>653</ele>
        <time>2015-04-15T15:52:29.000Z</time>
      </trkpt>
      <trkpt lat="45.05022" lon="5.62388">
        <ele>652</ele>
        <time>2015-04-15T15:52:30.000Z</time>
      </trkpt>
      <trkpt lat="45.05028" lon="5.62363">
        <ele>652</ele>
        <time>2015-04-15T15:52:36.000Z</time>
      </trkpt>
      <trkpt lat="45.05031" lon="5.6235">
        <ele>653</ele>
        <time>2015-04-15T15:52:39.000Z</time>
      </trkpt>
      <trkpt lat="45.05037" lon="5.6232">
        <ele>653</ele>
        <time>2015-04-15T15:52:45.000Z</time>
      </trkpt>
      <trkpt lat="45.05048" lon="5.623">
        <ele>652</ele>
        <time>2015-04-15T15:52:49.000Z</time>
      </trkpt>
      <trkpt lat="45.05048" lon="5.62292">
        <ele>652</ele>
        <time>2015-04-15T15:52:50.000Z</time>
      </trkpt>
      <trkpt lat="45.0505" lon="5.62275">
        <ele>652</ele>
        <time>2015-04-15T15:52:54.000Z</time>
      </trkpt>
      <trkpt lat="45.0505" lon="5.62272">
        <ele>652</ele>
        <time>2015-04-15T15:52:55.000Z</time>
      </trkpt>
      <trkpt lat="45.0505" lon="5.62266">
        <ele>652</ele>
        <time>2015-04-15T15:53:02.000Z</time>
      </trkpt>
      <trkpt lat="45.0505" lon="5.62261">
        <ele>651</ele>
        <time>2015-04-15T15:53:11.000Z</time>
      </trkpt>
      <trkpt lat="45.05047" lon="5.62258">
        <ele>652</ele>
        <time>2015-04-15T15:53:15.000Z</time>
      </trkpt>
      <trkpt lat="45.05046" lon="5.62256">
        <ele>652</ele>
        <time>2015-04-15T15:53:18.000Z</time>
      </trkpt>
      <trkpt lat="45.05047" lon="5.62253">
        <ele>652</ele>
        <time>2015-04-15T15:53:28.000Z</time>
      </trkpt>
      <trkpt lat="45.05051" lon="5.62252">
        <ele>651</ele>
        <time>2015-04-15T15:53:37.000Z</time>
      </trkpt>
      <trkpt lat="45.05053" lon="5.62253">
        <ele>651</ele>
        <time>2015-04-15T15:53:39.000Z</time>
      </trkpt>
      <trkpt lat="45.05056" lon="5.62255">
        <ele>650</ele>
        <time>2015-04-15T15:53:44.000Z</time>
      </trkpt>
      <trkpt lat="45.05057" lon="5.62259">
        <ele>650</ele>
        <time>2015-04-15T15:53:51.000Z</time>
      </trkpt>
      <trkpt lat="45.05059" lon="5.6226">
        <ele>650</ele>
        <time>2015-04-15T15:53:52.000Z</time>
      </trkpt>
      <trkpt lat="45.05065" lon="5.62268">
        <ele>649</ele>
        <time>2015-04-15T15:53:56.000Z</time>
      </trkpt>
      <trkpt lat="45.05072" lon="5.62275">
        <ele>649</ele>
        <time>2015-04-15T15:53:58.000Z</time>
      </trkpt>
      <trkpt lat="45.05077" lon="5.62286">
        <ele>649</ele>
        <time>2015-04-15T15:54:02.000Z</time>
      </trkpt>
      <trkpt lat="45.05074" lon="5.62298">
        <ele>649</ele>
        <time>2015-04-15T15:54:05.000Z</time>
      </trkpt>
      <trkpt lat="45.05074" lon="5.62303">
        <ele>648</ele>
        <time>2015-04-15T15:54:06.000Z</time>
      </trkpt>
      <trkpt lat="45.05077" lon="5.62316">
        <ele>646</ele>
        <time>2015-04-15T15:54:09.000Z</time>
      </trkpt>
      <trkpt lat="45.05084" lon="5.62332">
        <ele>639</ele>
        <time>2015-04-15T15:54:11.000Z</time>
      </trkpt>
      <trkpt lat="45.05089" lon="5.6235">
        <ele>634</ele>
        <time>2015-04-15T15:54:14.000Z</time>
      </trkpt>
      <trkpt lat="45.05091" lon="5.6237">
        <ele>631</ele>
        <time>2015-04-15T15:54:18.000Z</time>
      </trkpt>
      <trkpt lat="45.05094" lon="5.62386">
        <ele>630</ele>
        <time>2015-04-15T15:54:22.000Z</time>
      </trkpt>
      <trkpt lat="45.05096" lon="5.62391">
        <ele>630</ele>
        <time>2015-04-15T15:54:24.000Z</time>
      </trkpt>
      <trkpt lat="45.05096" lon="5.62395">
        <ele>630</ele>
        <time>2015-04-15T15:54:26.000Z</time>
      </trkpt>
      <trkpt lat="45.05097" lon="5.62397">
        <ele>630</ele>
        <time>2015-04-15T15:54:29.000Z</time>
      </trkpt>
      <trkpt lat="45.05101" lon="5.62411">
        <ele>630</ele>
        <time>2015-04-15T15:54:33.000Z</time>
      </trkpt>
      <trkpt lat="45.05114" lon="5.62429">
        <ele>620</ele>
        <time>2015-04-15T15:54:37.000Z</time>
      </trkpt>
      <trkpt lat="45.05116" lon="5.62433">
        <ele>619</ele>
        <time>2015-04-15T15:54:38.000Z</time>
      </trkpt>
      <trkpt lat="45.05134" lon="5.62451">
        <ele>615</ele>
        <time>2015-04-15T15:54:41.000Z</time>
      </trkpt>
      <trkpt lat="45.05141" lon="5.62457">
        <ele>614</ele>
        <time>2015-04-15T15:54:42.000Z</time>
      </trkpt>
      <trkpt lat="45.05158" lon="5.62459">
        <ele>612</ele>
        <time>2015-04-15T15:54:46.000Z</time>
      </trkpt>
      <trkpt lat="45.05163" lon="5.62459">
        <ele>612</ele>
        <time>2015-04-15T15:54:48.000Z</time>
      </trkpt>
      <trkpt lat="45.05171" lon="5.62459">
        <ele>604</ele>
        <time>2015-04-15T15:54:50.000Z</time>
      </trkpt>
      <trkpt lat="45.05176" lon="5.62458">
        <ele>604</ele>
        <time>2015-04-15T15:54:51.000Z</time>
      </trkpt>
      <trkpt lat="45.05195" lon="5.62452">
        <ele>605</ele>
        <time>2015-04-15T15:54:55.000Z</time>
      </trkpt>
    </trkseg>
  </trk>
</gpx>